Time;durP1;ratioP1;P1;durP2;ratioP2;P2;SDS_P1;SDS_P2;PMS_P1;PMS_P2;Temp;Humidity;BMP_temperature;BMP_pressure;BME280_temperature;BME280_humidity;BME280_pressure;Samples;Min_cycle;Max_cycle;Signal;HPM_P1;HPM_P2
2021/08/23 00:01:35;;;;;;;1.20;1.10;;;16.00;98.00;;;;;;5073665;28;20508;-74
2021/08/23 00:04:05;;;;;;;1.20;1.00;;;16.00;98.00;;;;;;5073666;28;20453;-73
2021/08/23 00:06:32;;;;;;;1.30;1.10;;;16.10;98.00;;;;;;5056246;28;20840;-74
2021/08/23 00:09:00;;;;;;;1.20;1.10;;;16.20;98.00;;;;;;5073538;28;20491;-74
2021/08/23 00:11:27;;;;;;;1.50;1.10;;;16.20;98.00;;;;;;5072860;28;20536;-73
2021/08/23 00:13:54;;;;;;;1.60;1.30;;;16.20;98.00;;;;;;5073629;28;20519;-74
2021/08/23 00:16:21;;;;;;;1.20;1.10;;;16.20;98.00;;;;;;5073680;28;20488;-75
2021/08/23 00:18:48;;;;;;;1.20;1.10;;;16.20;98.00;;;;;;5073696;28;20489;-73
2021/08/23 00:21:21;;;;;;;1.40;1.30;;;16.10;98.00;;;;;;5055674;28;20488;-74
2021/08/23 00:23:52;;;;;;;2.53;1.23;;;16.00;98.00;;;;;;5073306;28;20449;-73
2021/08/23 00:26:21;;;;;;;1.30;1.10;;;16.00;98.00;;;;;;5074196;28;20455;-75
2021/08/23 00:28:48;;;;;;;1.80;1.40;;;16.00;98.00;;;;;;5074143;28;20820;-76
2021/08/23 00:31:15;;;;;;;1.40;1.40;;;16.00;98.00;;;;;;5073489;28;20542;-73
2021/08/23 00:33:42;;;;;;;1.27;1.10;;;15.90;98.00;;;;;;5073949;28;20538;-75
2021/08/23 00:36:09;;;;;;;2.90;1.80;;;15.90;98.00;;;;;;5073163;28;20821;-75
2021/08/23 00:38:36;;;;;;;1.20;1.00;;;15.90;98.00;;;;;;5072316;28;20461;-74
2021/08/23 00:41:03;;;;;;;1.17;1.00;;;16.00;98.00;;;;;;5072812;28;20500;-75
2021/08/23 00:43:32;;;;;;;1.63;1.53;;;15.90;98.00;;;;;;5072893;28;20525;-73
2021/08/23 00:46:00;;;;;;;2.07;1.27;;;15.90;98.00;;;;;;5072797;28;20605;-74
2021/08/23 00:48:28;;;;;;;1.20;1.00;;;15.90;98.00;;;;;;5072709;28;20492;-76
2021/08/23 00:50:55;;;;;;;1.93;1.27;;;16.00;98.00;;;;;;5072730;28;20456;-74
2021/08/23 00:53:24;;;;;;;1.60;1.20;;;16.10;98.00;;;;;;5072509;28;21030;-74
2021/08/23 00:55:51;;;;;;;2.03;1.40;;;16.20;98.00;;;;;;5072210;28;20488;-74
2021/08/23 00:58:19;;;;;;;1.40;1.10;;;16.20;98.00;;;;;;5072344;28;20511;-75
2021/08/23 01:00:53;;;;;;;1.70;1.27;;;16.20;98.00;;;;;;5054438;28;20464;-76
2021/08/23 01:03:27;;;;;;;1.20;1.20;;;16.30;98.00;;;;;;5072135;28;20485;-74
2021/08/23 01:05:55;;;;;;;2.23;1.37;;;16.20;98.00;;;;;;5072105;28;20460;-74
2021/08/23 01:08:32;;;;;;;1.57;1.17;;;16.20;98.00;;;;;;5072151;28;20509;-76
2021/08/23 01:11:00;;;;;;;1.67;1.23;;;16.10;98.00;;;;;;5072028;28;20453;-74
2021/08/23 01:13:28;;;;;;;1.50;1.30;;;16.10;98.00;;;;;;5071912;28;20520;-74
2021/08/23 01:15:56;;;;;;;1.30;1.17;;;16.00;98.00;;;;;;5072010;28;20892;-74
2021/08/23 01:18:24;;;;;;;1.30;1.20;;;15.90;98.00;;;;;;5072000;28;20856;-75
2021/08/23 01:20:52;;;;;;;1.20;1.10;;;16.10;98.00;;;;;;5071967;28;20457;-76
2021/08/23 01:23:21;;;;;;;1.20;1.10;;;16.10;98.00;;;;;;5071230;28;20477;-74
2021/08/23 01:25:49;;;;;;;1.50;1.20;;;16.10;98.00;;;;;;5071899;28;20489;-73
2021/08/23 01:28:21;;;;;;;1.30;1.20;;;16.10;98.00;;;;;;5071893;28;20484;-74
2021/08/23 01:31:01;;;;;;;1.30;1.10;;;16.00;98.00;;;;;;5071811;28;20518;-74
2021/08/23 01:33:30;;;;;;;1.20;1.20;;;16.10;98.00;;;;;;5071680;28;20497;-74
2021/08/23 01:35:58;;;;;;;1.33;1.27;;;16.00;98.00;;;;;;5071841;28;20464;-74
2021/08/23 01:38:25;;;;;;;1.33;1.10;;;16.00;98.00;;;;;;5071929;28;20521;-74
2021/08/23 01:41:03;;;;;;;1.40;1.20;;;16.00;98.00;;;;;;5071721;28;20499;-74
2021/08/23 01:43:30;;;;;;;1.10;1.00;;;16.00;98.00;;;;;;5071981;28;20455;-73
2021/08/23 01:46:07;;;;;;;1.20;1.20;;;16.00;98.00;;;;;;5071589;28;20461;-74
2021/08/23 01:48:36;;;;;;;1.20;1.07;;;16.00;98.00;;;;;;5071556;28;20460;-73
2021/08/23 01:51:03;;;;;;;1.80;1.50;;;16.00;98.00;;;;;;5071485;28;20452;-74
2021/08/23 01:53:31;;;;;;;1.20;1.10;;;16.10;98.00;;;;;;5071358;28;21282;-74
2021/08/23 01:55:58;;;;;;;1.20;1.20;;;16.10;98.00;;;;;;5071327;28;20966;-73
2021/08/23 01:58:25;;;;;;;1.20;1.00;;;16.20;98.00;;;;;;5071313;28;20489;-74
2021/08/23 02:00:52;;;;;;;1.20;1.10;;;16.20;98.00;;;;;;5071343;28;20549;-74
2021/08/23 02:03:19;;;;;;;1.57;1.20;;;16.10;98.00;;;;;;5071462;28;20453;-74
2021/08/23 02:05:47;;;;;;;1.67;1.13;;;16.20;98.00;;;;;;5071067;28;20689;-75
2021/08/23 02:08:14;;;;;;;2.07;1.70;;;16.10;98.00;;;;;;5053676;28;20487;-74
2021/08/23 02:10:41;;;;;;;1.60;1.33;;;16.10;98.00;;;;;;5071138;28;20464;-74
2021/08/23 02:13:09;;;;;;;1.40;1.20;;;16.20;98.00;;;;;;5071156;28;20492;-74
2021/08/23 02:15:36;;;;;;;1.63;1.40;;;16.10;98.00;;;;;;5070969;28;20563;-74
2021/08/23 02:18:03;;;;;;;1.40;1.20;;;16.00;98.00;;;;;;5071073;28;20587;-74
2021/08/23 02:20:30;;;;;;;1.20;1.00;;;16.00;98.00;;;;;;5070935;28;20504;-74
2021/08/23 02:22:58;;;;;;;2.17;1.17;;;16.00;98.00;;;;;;5071002;28;20497;-74
2021/08/23 02:25:25;;;;;;;1.20;1.10;;;16.00;98.00;;;;;;5071024;28;20537;-74
2021/08/23 02:27:53;;;;;;;1.17;1.00;;;16.10;98.00;;;;;;5070968;28;20488;-73
2021/08/23 02:30:20;;;;;;;1.60;1.50;;;16.20;98.00;;;;;;5070962;28;20448;-74
2021/08/23 02:32:48;;;;;;;1.20;1.00;;;16.20;98.00;;;;;;5070953;28;20546;-73
2021/08/23 02:35:15;;;;;;;1.40;1.10;;;16.30;98.00;;;;;;5070337;28;20533;-74
2021/08/23 02:37:42;;;;;;;1.40;1.17;;;16.20;98.00;;;;;;5070752;28;20879;-74
2021/08/23 02:40:12;;;;;;;1.20;1.20;;;16.00;98.00;;;;;;5070938;28;20479;-74
2021/08/23 02:42:39;;;;;;;1.87;1.27;;;16.10;98.00;;;;;;5070792;28;20514;-74
2021/08/23 02:45:07;;;;;;;1.10;1.10;;;16.00;98.00;;;;;;5053118;28;20489;-73
2021/08/23 02:47:36;;;;;;;1.20;1.10;;;16.10;98.00;;;;;;5070920;28;20522;-73
2021/08/23 02:50:03;;;;;;;1.20;1.20;;;16.20;98.00;;;;;;5070724;28;20470;-74
2021/08/23 02:52:30;;;;;;;1.20;1.10;;;16.30;98.00;;;;;;5071081;28;20493;-74
2021/08/23 02:54:57;;;;;;;1.30;1.13;;;16.20;98.00;;;;;;5070770;28;20537;-74
2021/08/23 02:57:25;;;;;;;1.20;1.07;;;16.20;98.00;;;;;;5071004;28;20450;-73
2021/08/23 02:59:53;;;;;;;1.20;1.00;;;16.10;98.00;;;;;;5070746;28;20489;-73
2021/08/23 03:02:20;;;;;;;1.20;1.20;;;16.00;98.00;;;;;;5070826;28;20859;-74
2021/08/23 03:04:47;;;;;;;3.13;1.30;;;16.00;98.00;;;;;;5070359;28;20951;-73
2021/08/23 03:07:14;;;;;;;1.20;1.00;;;16.00;98.00;;;;;;5070635;28;20529;-73
2021/08/23 03:09:41;;;;;;;1.20;1.10;;;16.10;98.00;;;;;;5070576;28;20489;-74
2021/08/23 03:12:08;;;;;;;1.40;1.20;;;16.10;98.00;;;;;;5070745;28;20495;-73
2021/08/23 03:14:37;;;;;;;1.10;1.00;;;16.00;98.00;;;;;;5070178;28;20524;-74
2021/08/23 03:17:06;;;;;;;1.47;1.20;;;16.00;98.00;;;;;;5070730;28;20460;-73
2021/08/23 03:19:33;;;;;;;1.50;1.20;;;16.00;98.00;;;;;;5052679;28;20531;-74
2021/08/23 03:22:00;;;;;;;3.70;1.30;;;16.10;98.00;;;;;;5070352;28;20490;-75
2021/08/23 03:24:27;;;;;;;1.10;1.10;;;16.20;98.00;;;;;;5070461;28;20846;-74
2021/08/23 03:26:55;;;;;;;1.20;1.10;;;16.20;98.00;;;;;;5070339;28;20482;-73
2021/08/23 03:29:22;;;;;;;1.30;1.03;;;16.20;98.00;;;;;;5070296;28;20558;-74
2021/08/23 03:31:51;;;;;;;1.30;1.17;;;16.30;98.00;;;;;;5069952;28;20491;-74
2021/08/23 03:34:18;;;;;;;1.10;1.00;;;16.30;98.00;;;;;;5069839;28;21034;-74
2021/08/23 03:36:46;;;;;;;1.30;1.10;;;16.30;98.00;;;;;;5070200;28;20492;-73
2021/08/23 03:39:16;;;;;;;1.63;1.23;;;16.30;98.00;;;;;;5070277;28;20535;-73
2021/08/23 03:41:43;;;;;;;1.17;1.00;;;16.30;98.00;;;;;;5052169;28;20461;-73
2021/08/23 03:44:10;;;;;;;1.30;1.27;;;16.40;98.00;;;;;;5070243;28;20456;-74
2021/08/23 03:46:37;;;;;;;2.03;1.20;;;16.40;98.00;;;;;;5070709;28;20481;-73
2021/08/23 03:49:21;;;;;;;1.20;1.10;;;16.40;98.00;;;;;;5073535;28;20500;-74
2021/08/23 03:51:48;;;;;;;1.40;1.20;;;16.50;98.00;;;;;;5073590;28;20452;-74
2021/08/23 03:54:16;;;;;;;1.20;1.00;;;16.50;98.00;;;;;;5073630;28;20573;-73
2021/08/23 03:56:43;;;;;;;2.23;1.47;;;16.40;98.00;;;;;;5073647;28;20492;-73
2021/08/23 03:59:10;;;;;;;1.20;1.17;;;16.30;98.00;;;;;;5073527;28;20452;-74
2021/08/23 04:01:37;;;;;;;1.27;1.13;;;16.30;98.00;;;;;;5073523;28;20485;-74
2021/08/23 04:04:04;;;;;;;1.20;1.13;;;16.20;98.00;;;;;;5073738;28;20505;-73
2021/08/23 04:06:32;;;;;;;1.20;1.00;;;16.20;98.00;;;;;;5073383;28;20495;-73
2021/08/23 04:08:59;;;;;;;1.40;1.30;;;16.10;98.00;;;;;;5073267;28;20503;-74
2021/08/23 04:11:27;;;;;;;1.90;1.47;;;16.10;98.00;;;;;;5073212;28;20484;-73
2021/08/23 04:13:54;;;;;;;1.60;1.20;;;16.00;98.00;;;;;;5073290;28;20460;-74
2021/08/23 04:16:21;;;;;;;1.10;0.97;;;16.10;98.00;;;;;;5073570;28;20460;-74
2021/08/23 04:18:48;;;;;;;1.80;1.17;;;16.10;98.00;;;;;;5073499;28;20710;-74
2021/08/23 04:21:16;;;;;;;1.10;1.00;;;16.10;98.00;;;;;;5073170;28;20518;-75
2021/08/23 04:23:45;;;;;;;2.37;1.23;;;16.20;98.00;;;;;;5055388;28;20530;-74
2021/08/23 04:26:12;;;;;;;1.10;1.10;;;16.20;98.00;;;;;;5055417;28;20488;-73
2021/08/23 04:28:39;;;;;;;1.17;1.00;;;16.40;98.00;;;;;;5073025;28;20532;-75
2021/08/23 04:31:06;;;;;;;1.20;1.10;;;16.60;98.00;;;;;;5055434;28;20518;-73
2021/08/23 04:33:33;;;;;;;1.30;1.20;;;16.60;98.00;;;;;;5072814;28;20461;-75
2021/08/23 04:36:00;;;;;;;1.30;1.23;;;16.50;98.00;;;;;;5072747;28;20530;-73
2021/08/23 04:38:27;;;;;;;1.20;1.20;;;16.40;98.00;;;;;;5072818;28;20492;-73
2021/08/23 04:40:55;;;;;;;1.70;1.20;;;16.40;98.00;;;;;;5072698;28;20491;-73
2021/08/23 04:43:23;;;;;;;1.70;1.20;;;16.40;98.00;;;;;;5073164;28;20491;-73
2021/08/23 04:45:50;;;;;;;1.27;1.23;;;16.40;98.00;;;;;;5072627;28;20463;-73
2021/08/23 04:48:18;;;;;;;4.40;1.37;;;16.50;98.00;;;;;;5072895;28;20461;-75
2021/08/23 04:50:45;;;;;;;1.20;1.10;;;16.60;98.00;;;;;;5054696;28;20455;-74
2021/08/23 04:53:12;;;;;;;1.10;1.00;;;16.60;98.00;;;;;;5072573;28;20457;-73
2021/08/23 04:55:39;;;;;;;2.17;1.30;;;16.60;98.00;;;;;;5072281;28;20488;-73
2021/08/23 04:58:08;;;;;;;1.20;1.10;;;16.50;98.00;;;;;;5072298;28;20743;-74
2021/08/23 05:00:35;;;;;;;1.10;1.10;;;16.50;98.00;;;;;;5072358;28;20464;-76
2021/08/23 05:03:02;;;;;;;1.10;1.03;;;16.40;98.00;;;;;;5072446;28;20457;-74
2021/08/23 05:05:29;;;;;;;1.23;1.10;;;16.30;98.00;;;;;;5054421;28;21031;-72
2021/08/23 05:07:56;;;;;;;1.40;1.20;;;16.40;98.00;;;;;;5072269;28;20453;-74
2021/08/23 05:10:23;;;;;;;1.10;1.10;;;16.30;98.00;;;;;;5072236;28;20602;-73
2021/08/23 05:12:55;;;;;;;1.30;1.20;;;16.20;98.00;;;;;;5072076;28;20506;-74
2021/08/23 05:15:23;;;;;;;1.50;1.40;;;16.20;98.00;;;;;;5072204;28;20571;-74
2021/08/23 05:17:51;;;;;;;1.30;1.10;;;16.30;98.00;;;;;;5072025;28;20909;-74
2021/08/23 05:20:20;;;;;;;1.30;1.13;;;16.30;98.00;;;;;;5071991;28;20482;-75
2021/08/23 05:22:47;;;;;;;3.43;1.30;;;16.30;98.00;;;;;;5071907;28;20537;-75
2021/08/23 05:25:15;;;;;;;1.40;1.20;;;16.30;98.00;;;;;;5071912;28;20487;-73
2021/08/23 05:27:42;;;;;;;1.17;1.10;;;16.40;98.00;;;;;;5071778;28;20854;-73
2021/08/23 05:30:10;;;;;;;1.50;1.13;;;16.40;98.00;;;;;;5071793;28;20485;-73
2021/08/23 05:32:39;;;;;;;1.83;1.20;;;16.50;98.00;;;;;;5071685;28;20504;-74
2021/08/23 05:35:07;;;;;;;1.20;1.20;;;16.50;98.00;;;;;;5071625;28;20573;-73
2021/08/23 05:37:34;;;;;;;1.13;1.07;;;16.40;98.00;;;;;;5071982;28;20453;-74
2021/08/23 05:40:01;;;;;;;1.10;1.00;;;16.50;98.00;;;;;;5071662;28;20453;-73
2021/08/23 05:42:28;;;;;;;1.20;1.10;;;16.40;98.00;;;;;;5071737;28;20457;-74
2021/08/23 05:44:56;;;;;;;1.30;1.10;;;16.30;98.00;;;;;;5071509;28;21013;-73
2021/08/23 05:47:24;;;;;;;1.27;1.10;;;16.30;98.00;;;;;;5071522;28;20975;-72
2021/08/23 05:49:53;;;;;;;1.20;1.00;;;16.40;98.00;;;;;;5071297;28;20461;-73
2021/08/23 05:52:20;;;;;;;1.93;1.20;;;16.40;98.00;;;;;;5071463;28;20510;-73
2021/08/23 05:54:47;;;;;;;1.20;1.10;;;16.40;98.00;;;;;;5071150;28;20481;-73
2021/08/23 05:57:14;;;;;;;1.60;1.20;;;16.50;98.00;;;;;;5071389;28;20531;-73
2021/08/23 05:59:41;;;;;;;1.77;1.50;;;16.60;98.00;;;;;;5071231;28;20488;-73
2021/08/23 06:02:08;;;;;;;1.10;1.10;;;16.60;98.00;;;;;;5071331;28;20491;-73
2021/08/23 06:04:36;;;;;;;2.20;1.57;;;16.60;98.00;;;;;;5053511;28;20877;-73
2021/08/23 06:07:06;;;;;;;1.50;1.13;;;16.70;98.00;;;;;;5071086;28;20461;-75
2021/08/23 06:09:34;;;;;;;1.20;1.10;;;16.70;98.00;;;;;;5070556;28;20489;-73
2021/08/23 06:12:02;;;;;;;1.20;1.13;;;16.60;98.00;;;;;;5070527;28;20500;-73
2021/08/23 06:14:29;;;;;;;1.20;1.00;;;16.60;98.00;;;;;;5070955;28;20460;-73
2021/08/23 06:16:56;;;;;;;1.20;1.10;;;16.60;98.00;;;;;;5071038;28;20550;-73
2021/08/23 06:19:26;;;;;;;1.33;1.10;;;16.70;98.00;;;;;;5071102;28;20460;-73
2021/08/23 06:21:53;;;;;;;1.20;1.10;;;16.70;98.00;;;;;;5071118;28;20457;-74
2021/08/23 06:24:22;;;;;;;1.40;1.10;;;16.70;98.00;;;;;;5070909;28;20502;-74
2021/08/23 06:26:49;;;;;;;1.30;1.20;;;16.70;98.00;;;;;;5071023;28;20511;-75
2021/08/23 06:29:16;;;;;;;1.40;1.30;;;16.70;98.00;;;;;;5070945;28;20484;-76
2021/08/23 06:31:43;;;;;;;1.53;1.20;;;16.90;98.00;;;;;;5070597;28;20453;-76
2021/08/23 06:34:10;;;;;;;1.30;1.27;;;16.90;98.00;;;;;;5070864;28;21031;-76
2021/08/23 06:36:39;;;;;;;1.40;1.17;;;17.00;98.00;;;;;;5070722;28;20952;-76
2021/08/23 06:39:06;;;;;;;1.40;1.30;;;17.00;98.00;;;;;;5070802;28;20457;-76
2021/08/23 06:41:34;;;;;;;1.67;1.40;;;17.00;98.00;;;;;;5070674;28;20481;-76
2021/08/23 06:44:01;;;;;;;1.43;1.10;;;17.10;98.00;;;;;;5070728;28;20457;-76
2021/08/23 06:46:29;;;;;;;1.90;1.40;;;17.20;98.00;;;;;;5070736;28;20492;-76
2021/08/23 06:48:55;;;;;;;1.20;1.00;;;17.30;98.00;;;;;;5070772;28;20463;-75
2021/08/23 06:51:24;;;;;;;1.30;1.30;;;17.30;98.00;;;;;;5070749;28;20493;-77
2021/08/23 06:53:52;;;;;;;1.33;1.20;;;17.30;98.00;;;;;;5070860;28;20464;-76
2021/08/23 06:56:20;;;;;;;1.37;1.20;;;17.40;98.00;;;;;;5070835;28;20524;-77
2021/08/23 06:58:48;;;;;;;1.37;1.20;;;17.50;98.00;;;;;;5070968;28;20823;-77
2021/08/23 07:01:15;;;;;;;1.20;1.10;;;17.60;98.00;;;;;;5052917;28;20522;-76
2021/08/23 07:03:42;;;;;;;1.60;1.17;;;17.50;98.00;;;;;;5070728;28;20492;-74
2021/08/23 07:06:09;;;;;;;1.80;1.20;;;17.70;98.00;;;;;;5070442;28;21012;-75
2021/08/23 07:08:36;;;;;;;1.27;1.10;;;17.60;98.00;;;;;;5070726;28;20460;-76
2021/08/23 07:11:03;;;;;;;1.40;1.13;;;17.50;98.00;;;;;;5070437;28;20996;-75
2021/08/23 07:13:33;;;;;;;1.20;1.00;;;17.40;98.00;;;;;;5070876;28;20453;-76
2021/08/23 07:16:02;;;;;;;1.20;1.10;;;17.50;98.00;;;;;;5070701;28;20628;-75
2021/08/23 07:18:32;;;;;;;1.53;1.10;;;17.40;98.00;;;;;;5070548;28;20504;-75
2021/08/23 07:20:59;;;;;;;1.20;1.20;;;17.40;98.00;;;;;;5071550;28;20464;-75
2021/08/23 07:23:26;;;;;;;1.30;1.03;;;17.50;98.00;;;;;;5074486;28;20604;-75
2021/08/23 07:25:53;;;;;;;1.20;1.10;;;17.50;98.00;;;;;;5075344;28;20453;-76
2021/08/23 07:28:21;;;;;;;1.10;1.00;;;17.60;98.00;;;;;;5074986;28;21006;-75
2021/08/23 07:30:48;;;;;;;1.50;1.30;;;17.80;98.00;;;;;;5057040;28;20545;-75
2021/08/23 07:33:16;;;;;;;2.13;1.53;;;17.80;98.00;;;;;;5075308;28;20461;-75
2021/08/23 07:35:44;;;;;;;1.60;1.40;;;17.80;98.00;;;;;;5071743;28;20597;-75
2021/08/23 07:38:11;;;;;;;2.87;1.30;;;17.90;98.00;;;;;;5079372;28;20458;-76
2021/08/23 07:40:38;;;;;;;1.20;1.03;;;17.80;98.00;;;;;;5081257;28;20455;-74
2021/08/23 07:43:05;;;;;;;1.30;1.00;;;17.70;98.00;;;;;;5081762;28;20511;-72
2021/08/23 07:45:34;;;;;;;1.20;1.03;;;17.80;98.00;;;;;;5062967;28;20484;-76
2021/08/23 07:48:01;;;;;;;1.20;1.20;;;17.70;98.00;;;;;;5079621;28;20491;-75
2021/08/23 07:50:29;;;;;;;1.40;1.30;;;17.70;98.00;;;;;;5078836;28;20485;-75
2021/08/23 07:52:56;;;;;;;1.20;1.10;;;17.60;98.00;;;;;;5072639;28;20795;-74
2021/08/23 07:55:24;;;;;;;1.30;1.10;;;17.80;98.00;;;;;;5072355;28;20476;-75
2021/08/23 07:57:51;;;;;;;1.20;1.13;;;17.80;98.00;;;;;;5079574;28;20491;-74
2021/08/23 08:00:19;;;;;;;1.50;1.20;;;17.80;98.00;;;;;;5088930;28;20451;-75
2021/08/23 08:02:47;;;;;;;2.23;1.20;;;17.90;98.00;;;;;;5074711;28;20500;-76
2021/08/23 08:05:15;;;;;;;1.40;1.20;;;18.00;98.00;;;;;;5081111;28;20516;-76
2021/08/23 08:07:44;;;;;;;1.30;1.13;;;18.00;98.00;;;;;;5078046;28;20478;-75
2021/08/23 08:10:12;;;;;;;1.50;1.33;;;18.00;98.00;;;;;;5080353;28;20487;-75
2021/08/23 08:12:39;;;;;;;1.93;1.50;;;18.10;98.00;;;;;;5089631;28;20456;-76
2021/08/23 08:15:11;;;;;;;1.57;1.30;;;18.20;98.00;;;;;;5062173;28;20488;-75
2021/08/23 08:17:38;;;;;;;1.30;1.10;;;18.20;98.00;;;;;;5088407;28;20503;-75
2021/08/23 08:20:08;;;;;;;1.40;1.30;;;18.30;98.00;;;;;;5088553;28;20537;-75
2021/08/23 08:22:35;;;;;;;1.20;1.10;;;18.40;98.00;;;;;;5074037;28;20514;-76
2021/08/23 08:25:08;;;;;;;1.30;1.20;;;18.50;98.00;;;;;;5078721;28;20488;-75
2021/08/23 08:27:36;;;;;;;1.77;1.60;;;18.40;98.00;;;;;;5079468;28;20456;-75
2021/08/23 08:30:03;;;;;;;1.47;1.33;;;18.20;98.00;;;;;;5062649;28;20550;-75
2021/08/23 08:32:30;;;;;;;1.40;1.20;;;18.20;98.00;;;;;;5078610;28;20452;-76
2021/08/23 08:34:57;;;;;;;1.40;1.23;;;18.10;98.00;;;;;;5072976;28;21015;-75
2021/08/23 08:37:25;;;;;;;1.20;1.00;;;18.10;98.00;;;;;;5080365;28;20985;-75
2021/08/23 08:39:52;;;;;;;1.40;1.20;;;18.20;98.00;;;;;;5077903;28;20451;-75
2021/08/23 08:42:20;;;;;;;1.30;1.30;;;18.10;98.00;;;;;;5088158;28;20928;-75
2021/08/23 08:44:48;;;;;;;1.63;1.17;;;18.00;98.00;;;;;;5081587;28;20489;-74
2021/08/23 08:47:17;;;;;;;1.50;1.37;;;18.00;98.00;;;;;;5077570;28;20487;-77
2021/08/23 08:49:45;;;;;;;1.40;1.40;;;18.00;98.00;;;;;;5071996;28;20496;-76
2021/08/23 08:52:13;;;;;;;1.20;1.20;;;17.90;98.00;;;;;;5077624;28;20891;-75
2021/08/23 08:54:42;;;;;;;1.53;1.47;;;17.90;98.00;;;;;;5079710;28;20460;-72
2021/08/23 08:57:13;;;;;;;1.70;1.30;;;17.80;98.00;;;;;;5087486;28;20486;-75
2021/08/23 08:59:42;;;;;;;1.20;1.10;;;17.80;98.00;;;;;;5069171;28;20456;-76
2021/08/23 09:02:10;;;;;;;1.20;1.10;;;18.00;98.00;;;;;;5070146;28;20555;-75
2021/08/23 09:04:39;;;;;;;1.60;1.13;;;18.10;98.00;;;;;;5087766;28;20509;-75
2021/08/23 09:07:08;;;;;;;1.23;1.17;;;18.10;98.00;;;;;;5080783;28;20871;-76
2021/08/23 09:09:36;;;;;;;1.40;1.30;;;18.40;98.00;;;;;;5078976;28;20495;-76
2021/08/23 09:12:05;;;;;;;1.40;1.20;;;18.90;98.00;;;;;;5086980;28;20480;-75
2021/08/23 09:14:34;;;;;;;1.20;1.10;;;19.40;98.00;;;;;;5081277;28;20491;-76
2021/08/23 09:17:06;;;;;;;1.70;1.60;;;19.60;98.00;;;;;;5086156;28;20495;-77
2021/08/23 09:19:34;;;;;;;1.23;1.17;;;19.70;98.00;;;;;;5078600;28;20464;-76
2021/08/23 09:22:05;;;;;;;1.20;1.00;;;19.70;98.00;;;;;;5087506;28;20966;-76
2021/08/23 09:24:35;;;;;;;1.30;1.20;;;20.10;98.00;;;;;;5079385;28;20488;-76
2021/08/23 09:27:07;;;;;;;1.63;1.53;;;20.30;98.00;;;;;;5079157;28;20590;-75
2021/08/23 09:29:55;;;;;;;1.40;1.30;;;20.30;98.00;;;;;;5087181;28;20456;-75
2021/08/23 09:32:24;;;;;;;2.23;1.30;;;20.20;98.00;;;;;;5064217;28;20883;-76
2021/08/23 09:34:51;;;;;;;1.60;1.57;;;20.20;98.00;;;;;;5070841;28;20851;-75
2021/08/23 09:37:22;;;;;;;1.40;1.27;;;20.20;98.00;;;;;;5071916;28;20572;-75
2021/08/23 09:39:49;;;;;;;1.50;1.40;;;20.10;98.00;;;;;;5066995;28;20469;-77
2021/08/23 09:42:20;;;;;;;1.20;1.20;;;19.90;98.00;;;;;;5079194;28;20514;-76
2021/08/23 09:44:48;;;;;;;1.43;1.37;;;19.70;98.00;;;;;;5086270;28;21349;-75
2021/08/23 09:47:16;;;;;;;1.40;1.20;;;19.70;98.00;;;;;;5077676;28;20496;-75
2021/08/23 09:49:46;;;;;;;2.03;1.80;;;19.90;98.00;;;;;;5077028;28;20468;-77
2021/08/23 09:52:16;;;;;;;1.20;1.20;;;19.90;98.00;;;;;;5086476;28;20482;-74
2021/08/23 09:54:43;;;;;;;1.30;1.20;;;19.80;98.00;;;;;;5086810;28;20563;-74
2021/08/23 09:57:12;;;;;;;1.30;1.20;;;19.70;98.00;;;;;;5077577;28;20533;-75
2021/08/23 09:59:42;;;;;;;1.77;1.50;;;19.70;98.00;;;;;;5077212;28;20465;-74
2021/08/23 10:02:11;;;;;;;1.50;1.40;;;19.80;98.00;;;;;;5075743;28;20883;-75
2021/08/23 10:04:38;;;;;;;1.37;1.30;;;20.00;98.00;;;;;;5051824;28;20464;-73
2021/08/23 10:07:12;;;;;;;1.73;1.30;;;20.10;98.00;;;;;;5078673;28;20510;-74
2021/08/23 10:09:42;;;;;;;1.40;1.30;;;20.30;98.00;;;;;;5072614;28;20460;-73
2021/08/23 10:12:13;;;;;;;1.40;1.37;;;20.30;98.00;;;;;;5086176;28;20978;-74
2021/08/23 10:14:42;;;;;;;1.50;1.50;;;20.20;98.00;;;;;;5086053;28;20523;-73
2021/08/23 10:17:09;;;;;;;1.30;1.30;;;20.10;98.00;;;;;;5077233;28;20582;-74
2021/08/23 10:19:40;;;;;;;1.47;1.37;;;20.00;98.00;;;;;;5083388;28;20455;-74
2021/08/23 10:22:12;;;;;;;1.50;1.37;;;20.00;98.00;;;;;;5077989;28;20463;-73
2021/08/23 10:24:41;;;;;;;1.30;1.10;;;19.90;98.00;;;;;;5074533;28;20525;-74
2021/08/23 10:27:08;;;;;;;1.60;1.50;;;19.90;98.00;;;;;;5073804;28;20492;-73
2021/08/23 10:29:40;;;;;;;2.17;1.60;;;19.80;98.00;;;;;;5065569;28;20460;-74
2021/08/23 10:32:09;;;;;;;1.20;1.10;;;19.80;98.00;;;;;;5076540;28;20494;-74
2021/08/23 10:34:38;;;;;;;1.20;1.17;;;19.80;98.00;;;;;;5080908;28;20456;-74
2021/08/23 10:37:17;;;;;;;1.40;1.37;;;19.90;98.00;;;;;;5069914;28;20496;-74
2021/08/23 10:39:45;;;;;;;1.73;1.47;;;20.00;98.00;;;;;;5076384;28;20483;-74
2021/08/23 10:42:14;;;;;;;1.47;1.40;;;20.20;98.00;;;;;;5078251;28;20796;-74
2021/08/23 10:44:41;;;;;;;1.70;1.60;;;20.40;98.00;;;;;;5086670;28;20898;-74
2021/08/23 10:47:10;;;;;;;1.47;1.43;;;20.50;98.00;;;;;;5078994;28;20492;-74
2021/08/23 10:49:42;;;;;;;1.20;1.20;;;20.70;98.00;;;;;;5067570;28;21016;-74
2021/08/23 10:52:10;;;;;;;1.27;1.20;;;20.80;98.00;;;;;;5069854;28;20476;-74
2021/08/23 10:54:40;;;;;;;1.60;1.57;;;20.80;98.00;;;;;;5078010;28;20514;-75
2021/08/23 10:57:08;;;;;;;2.07;1.50;;;20.80;98.00;;;;;;5079488;28;20519;-75
2021/08/23 10:59:41;;;;;;;1.30;1.30;;;20.80;98.00;;;;;;5073989;28;20478;-74
2021/08/23 11:02:09;;;;;;;1.20;1.20;;;20.70;98.00;;;;;;5089268;28;20460;-74
2021/08/23 11:04:40;;;;;;;1.40;1.30;;;20.70;98.00;;;;;;5090672;28;20969;-74
2021/08/23 11:07:08;;;;;;;1.30;1.23;;;20.70;98.00;;;;;;5081553;28;20614;-75
2021/08/23 11:09:39;;;;;;;1.33;1.33;;;20.80;98.00;;;;;;5082277;28;21025;-74
2021/08/23 11:12:14;;;;;;;1.80;1.60;;;20.80;98.00;;;;;;5080934;28;20514;-75
2021/08/23 11:14:50;;;;;;;1.73;1.50;;;20.90;98.00;;;;;;5073485;28;20457;-75
2021/08/23 11:17:43;;;;;;;1.20;1.10;;;20.80;98.00;;;;;;5074580;28;20488;-75
2021/08/23 11:20:11;;;;;;;1.37;1.30;;;20.90;98.00;;;;;;5073957;28;20481;-74
2021/08/23 11:22:38;;;;;;;1.20;1.20;;;20.70;98.00;;;;;;5081348;28;20947;-74
2021/08/23 11:25:07;;;;;;;1.50;1.40;;;20.90;98.00;;;;;;5085444;28;20545;-74
2021/08/23 11:27:34;;;;;;;1.50;1.40;;;21.00;98.00;;;;;;5080928;28;20541;-75
2021/08/23 11:30:02;;;;;;;1.30;1.20;;;21.00;98.00;;;;;;5080377;28;20539;-74
2021/08/23 11:32:33;;;;;;;1.40;1.30;;;20.90;98.00;;;;;;5078266;28;20771;-73
2021/08/23 11:35:01;;;;;;;1.30;1.20;;;20.80;98.00;;;;;;5081075;28;20855;-73
2021/08/23 11:37:29;;;;;;;1.20;1.10;;;20.70;98.00;;;;;;5077662;28;20496;-72
2021/08/23 11:40:09;;;;;;;1.57;1.40;;;20.70;98.00;;;;;;5080949;28;20545;-72
2021/08/23 11:42:36;;;;;;;1.43;1.43;;;20.70;98.00;;;;;;5075563;28;20868;-73
2021/08/23 11:45:04;;;;;;;1.50;1.40;;;20.80;98.00;;;;;;5078472;28;20452;-73
2021/08/23 11:47:33;;;;;;;1.30;1.30;;;20.90;98.00;;;;;;5075994;28;20483;-75
2021/08/23 11:50:01;;;;;;;1.30;1.20;;;21.20;98.00;;;;;;5076509;28;20460;-74
2021/08/23 11:52:28;;;;;;;1.50;1.50;;;21.80;98.00;;;;;;5089582;28;20471;-75
2021/08/23 11:54:57;;;;;;;1.47;1.40;;;22.00;98.00;;;;;;5075744;28;20498;-75
2021/08/23 11:57:27;;;;;;;1.30;1.10;;;22.10;98.00;;;;;;5059918;28;20571;-73
2021/08/23 11:59:56;;;;;;;1.30;1.30;;;22.20;98.00;;;;;;5083580;28;20461;-74
2021/08/23 12:02:34;;;;;;;1.40;1.37;;;22.30;98.00;;;;;;5086704;28;20985;-74
2021/08/23 12:05:09;;;;;;;2.13;1.57;;;22.20;98.00;;;;;;5088869;28;20487;-74
2021/08/23 12:07:47;;;;;;;2.30;1.40;;;22.20;98.00;;;;;;5079237;28;20494;-73
2021/08/23 12:10:25;;;;;;;1.33;1.30;;;22.10;98.00;;;;;;5089789;28;20479;-74
2021/08/23 12:13:05;;;;;;;1.30;1.30;;;21.90;98.00;;;;;;5073233;28;20451;-73
2021/08/23 12:15:32;;;;;;;1.57;1.47;;;21.90;98.00;;;;;;5074026;28;20483;-74
2021/08/23 12:18:10;;;;;;;1.20;1.10;;;21.90;98.00;;;;;;5078417;28;20528;-74
2021/08/23 12:20:37;;;;;;;2.60;1.50;;;22.00;98.00;;;;;;5072805;28;20499;-73
2021/08/23 12:23:05;;;;;;;1.33;1.27;;;22.00;98.00;;;;;;5082765;28;21011;-74
2021/08/23 12:25:32;;;;;;;1.20;1.10;;;22.30;98.00;;;;;;5077101;28;20484;-73
2021/08/23 12:28:01;;;;;;;1.20;1.10;;;22.50;98.00;;;;;;5072500;28;20453;-74
2021/08/23 12:30:31;;;;;;;2.03;1.50;;;22.80;98.00;;;;;;5079277;28;20931;-74
2021/08/23 12:32:58;;;;;;;1.60;1.20;;;23.00;98.00;;;;;;5083346;28;20521;-76
2021/08/23 12:35:30;;;;;;;1.97;1.33;;;23.20;98.00;;;;;;5079450;28;20533;-75
2021/08/23 12:37:58;;;;;;;1.20;1.20;;;23.30;98.00;;;;;;5071553;28;20815;-76
2021/08/23 12:40:26;;;;;;;1.20;1.20;;;23.40;98.00;;;;;;5088962;28;20523;-77
2021/08/23 12:42:58;;;;;;;1.37;1.20;;;23.10;98.00;;;;;;5081680;28;20460;-77
2021/08/23 12:45:29;;;;;;;1.83;1.20;;;23.10;98.00;;;;;;5093785;28;20990;-76
2021/08/23 12:47:56;;;;;;;1.30;1.20;;;23.10;98.00;;;;;;5093866;28;20456;-76
2021/08/23 12:50:23;;;;;;;1.20;1.10;;;23.20;98.00;;;;;;5092690;28;20464;-75
2021/08/23 12:52:50;;;;;;;1.30;1.10;;;23.10;98.00;;;;;;5092760;28;20462;-75
2021/08/23 12:55:17;;;;;;;1.20;1.10;;;23.10;98.00;;;;;;5093123;28;20452;-75